Gazetteer of Planetary Nomenclature
International Astronomical Union (IAU) Working Group for Planetary System Nomenclature (WGPSN)
Planetary Names: Search Results

Nomenclature Search Results

Target: MOON [x]
Feature Type: Landing site name [x]

Go back and Refine your Search.

All search result latitudes are planetocentric

To show and hide columns, move your mouse over the leftmost column heading with a '+'.
Your search results (1 - 50 of 83)
Per Page:
+
Feature ID
Feature Name
Clean Feature Name
Target
Diameter (km)
Center Latitude Center Longitude Northernmost Latitude Southernmost Latitude Easternmost Longitude Westernmost Longitude Coordinate System
Continent Ethnicity
Feature Type
Feature Type Code
Quad
Approval Status
Approval Date
Reference
Origin Additional Info
Last Updated
314 Apennine Front Apennine Front Moon 6.63 25.92 3.68 26.01 25.84 3.77 3.59 +E (0-180) EU - Italy Landing site name LF LAC-41 Approved 1973-01-01 00:00:00.0 [59] Astronaut-named feature, Apollo 15 site. 2010-10-25 11:16:18.467
536 Baby Ray Baby Ray Moon 0.17 -9.08 15.42 -9.08 -9.09 15.43 15.42 +E (0-180) NA - American Landing site name LF LAC-78 Approved 1973-01-01 00:00:00.0 [60] Astronaut-named feature, Apollo 16 site. 2010-10-25 11:16:55.92
652 Bear Mountain Bear Mountain Moon 3.46 19.98 30.77 20.03 19.93 30.82 30.72 +E (0-180) NA - American Landing site name LF LAC-43 Approved 1973-01-01 00:00:00.0 [59] Astronaut-named feature, Apollo 17 site. 2010-10-25 11:17:25.589
686 Bench Bench Moon 0.18 -3.02 -23.43 -3.02 -3.02 -23.43 -23.43 +E (0-180) NA - American Landing site name LF LAC-76 Approved 1973-01-01 00:00:00.0 [60] Astronaut-named feature, Apollo 12 site. 2015-12-14 16:13:36.874
779 Block Block Moon 0.01 -3.01 -23.41 -3.01 -3.02 -23.41 -23.41 +E (0-180) NA - American Landing site name LF LAC-76 Approved 1973-01-01 00:00:00.0 [60] Astronaut-named feature, Apollo 12 site. 2015-12-14 16:12:39.835
848 Bowen-Apollo Bowen Apollo Moon 0.3 20.27 30.87 20.28 20.27 30.87 30.86 +E (0-180) NA - American Landing site name LF LAC-43 Approved 1973-01-01 00:00:00.0 - Astronaut-named feature, Apollo 17 site. 2010-10-25 11:20:30.249
877 Bridge Bridge Moon 0.69 26.04 3.51 26.05 26.03 3.52 3.5 +E (0-180) NA - American Landing site name LF LAC-41 Approved 1973-01-01 00:00:00.0 [60] Astronaut-named feature, Apollo 15 site. 2010-10-25 11:20:59.717
889 Brontë Bronte Moon 0.21 20.17 30.67 20.18 20.17 30.68 30.67 +E (0-180) NA - American Landing site name LF LAC-43 Approved 1973-01-01 00:00:00.0 [60] Astronaut-named feature, Apollo 17 site. 2010-10-25 11:21:27.449
984 Camelot Camelot Moon 0.61 20.19 30.73 20.2 20.18 30.74 30.72 +E (0-180) EU - Great Britain Landing site name LF LAC-43 Approved 1973-01-01 00:00:00.0 [60] Astronaut-named feature, Apollo 17 site. 2010-10-25 13:46:12.304
1217 Cinco Cinco Moon 0.07 -9.1 15.52 -9.1 -9.1 15.52 15.52 +E (0-180) NA - American Landing site name LF LAC-78 Approved 1973-01-01 00:00:00.0 [60] Astronaut-named feature, Apollo 16 site. 2010-10-25 13:46:35.676
1259 Cochise Cochise Moon 0.56 20.25 30.84 20.26 20.24 30.85 30.83 +E (0-180) NA - American Landing site name LF LAC-43 Approved 1973-01-01 00:00:00.0 [60] Astronaut-named feature, Apollo 17 site. 2010-10-25 13:46:58.039
1287 Cone Cone Moon 0.33 -3.62 -17.43 -3.62 -3.63 -17.43 -17.44 +E (0-180) NA - American Landing site name LF LAC-76 Approved 1973-01-01 00:00:00.0 [60] Astronaut-named feature, Apollo 14 site. 2015-12-15 15:18:45.438
1330 Crescent Crescent Moon 1.98 -3 -23.43 -2.97 -3.03 -23.4 -23.47 +E (0-180) NA - American Landing site name LF LAC-76 Approved 1973-01-01 00:00:00.0 [60] Astronaut-named feature, Apollo 12 site. 2015-12-15 14:36:58.575
15616 Double Double Moon 0.01 0.67 23.47 0.67 0.67 23.47 23.47 +E (0-180) NA - United States Landing site name LF LAC-60 Approved 2017-07-26 00:00:00.0 [428] Astronaut named crater, Apollo 11 site. 2017-07-26 13:55:20.393
1629 Doublet Doublet Moon 0.13 -3.64 -17.47 -3.63 -3.64 -17.47 -17.48 +E (0-180) NA - American Landing site name LF LAC-76 Approved 1973-01-01 00:00:00.0 [60] Astronaut-named feature, Apollo 14 site. 2015-12-15 15:10:01.095
1662 Dune Dune Moon 0.38 26.04 3.66 26.04 26.03 3.67 3.66 +E (0-180) NA - American Landing site name LF LAC-41 Approved 1973-01-01 00:00:00.0 [60] Astronaut-named feature, Apollo 15 site. 2010-10-25 13:48:20.909
1705 Earthlight Earthlight Moon 0.21 26.06 3.65 26.06 26.06 3.65 3.65 +E (0-180) NA - American Landing site name LF LAC-41 Approved 1973-01-01 00:00:00.0 [60] Astronaut-named feature, Apollo 15 site. 2010-10-25 13:48:42.544
1759 Elbow Elbow Moon 0.34 26.03 3.6 26.04 26.02 3.61 3.59 +E (0-180) NA - American Landing site name LF LAC-41 Approved 1973-01-01 00:00:00.0 [60] Astronaut-named feature, Apollo 15 site. 2010-10-25 13:49:02.781
1794 Emory Emory Moon 0.55 20.12 30.78 20.13 20.11 30.79 30.77 +E (0-180) NA - American Landing site name LF LAC-43 Approved 1973-01-01 00:00:00.0 [60] Astronaut-named feature, Apollo 17 site. 2010-10-25 13:49:26.89
1797 End End Moon 0.06 -8.91 15.51 -8.91 -8.91 15.51 15.51 +E (0-180) NA - American Landing site name LF LAC-78 Approved 1973-01-01 00:00:00.0 [60] Astronaut-named feature, Apollo 16 site. 2010-10-25 14:41:37.583
1904 Falcon Falcon Moon 0.12 20.31 30.31 20.31 20.31 30.31 30.3 +E (0-180) NA - American Landing site name LF LAC-43 Approved 1973-01-01 00:00:00.0 - Astronaut-named feature, Apollo 17 site. 2010-10-18 12:00:00.0
1907 Family Mountain Family Mountain Moon 3.39 20.38 30.34 20.43 20.33 30.4 30.28 +E (0-180) NA - American Landing site name LF LAC-43 Approved 1973-01-01 00:00:00.0 [59] Astronaut-named feature, Apollo 17 site. 2010-10-25 13:55:06.584
1970 Flag Flag Moon 0.24 -8.97 15.45 -8.97 -8.98 15.45 15.44 +E (0-180) NA - American Landing site name LF LAC-78 Approved 1973-01-01 00:00:00.0 [60] Astronaut-named feature, Apollo 16 site. 2010-10-25 13:55:29.11
1975 Flank Flank Moon 0.04 -3.63 -17.44 -3.63 -3.63 -17.44 -17.44 +E (0-180) NA - American Landing site name LF LAC-76 Approved 1973-01-01 00:00:00.0 [60] Astronaut-named feature, Apollo 14 site. 2015-12-15 15:24:43.659
2115 Gator Gator Moon 0.85 -8.95 15.55 -8.93 -8.96 15.56 15.53 +E (0-180) NA - American Landing site name LF LAC-78 Approved 1973-01-01 00:00:00.0 [60] Astronaut-named feature, Apollo 16 site. 2010-10-25 13:56:10.428
15415 Guang Han Gong Guang Han Gong Moon 0.08 44.12 -19.51 44.12 44.11 -19.51 -19.52 +E (0-180) AS - China Landing site name LF LAC-24 Approved 2015-10-05 00:00:00.0 [375] Moon palace where Chang-E and Yutu lived in Chinese mythology. 2015-10-05 12:23:51.669
2324 Halfway Halfway Moon 0.11 -8.97 15.46 -8.97 -8.98 15.47 15.46 +E (0-180) NA - American Landing site name LF LAC-78 Approved 1973-01-01 00:00:00.0 [59] Astronaut-named feature, Apollo 16 site. 2010-10-25 13:56:35.443
2333 Halo Halo Moon 0.01 -3.02 -23.42 -3.02 -3.02 -23.42 -23.42 +E (0-180) NA - American Landing site name LF LAC-76 Approved 1973-01-01 00:00:00.0 [60] Astronaut-named feature, Apollo 12 site. 2015-12-15 14:21:23.504
2396 Head Head Moon 0.12 -3.01 -23.42 -3.01 -3.01 -23.42 -23.43 +E (0-180) NA - American Landing site name LF LAC-76 Approved 1973-01-01 00:00:00.0 [59] Astronaut-named feature, Apollo 12 site. 2015-12-15 15:03:03.878
2491 Hess-Apollo Hess Apollo Moon 0.64 20.09 30.75 20.1 20.08 30.75 30.74 +E (0-180) NA - American Landing site name LF LAC-43 Approved 1973-01-01 00:00:00.0 [59] Astronaut-named feature, Apollo 17 site. 2010-10-25 13:57:38.564
2554 Horatio Horatio Moon 0.38 20.19 30.71 20.19 20.18 30.72 30.7 +E (0-180) NA - American Landing site name LF LAC-43 Approved 1973-01-01 00:00:00.0 [59] Astronaut-named feature, Apollo 17 site. 2010-10-25 13:57:57.628
2685 Index Index Moon 0.32 26.1 3.66 26.11 26.1 3.66 3.65 +E (0-180) NA - American Landing site name LF LAC-41 Approved 1973-01-01 00:00:00.0 [59] Astronaut-named feature, Apollo 15 site. 2010-10-25 13:58:14.82
3059 Kiva Kiva Moon 0.88 -8.84 15.45 -8.83 -8.86 15.47 15.44 +E (0-180) NA - Pueblo Landing site name LF LAC-78 Approved 1973-01-01 00:00:00.0 [59] Astronaut-named feature, Apollo 16 site. 2010-10-25 13:58:34.338
3279 Lara Lara Moon 0.62 20.17 30.55 20.18 20.16 30.56 30.54 +E (0-180) NA - American Landing site name LF LAC-43 Approved 1973-01-01 00:00:00.0 [59] Astronaut-named feature, Apollo 17 site. 2010-10-18 12:00:00.0
3289 Last Last Moon 0.15 26.13 3.64 26.13 26.12 3.64 3.63 +E (0-180) NA - American Landing site name LF LAC-41 Approved 1973-01-01 00:00:00.0 [59] Astronaut-named feature, Apollo 15 site. 2010-10-18 12:00:00.0
3398 Light Mantle Light Mantle Moon 4.58 20.16 30.53 20.24 20.09 30.57 30.44 +E (0-180) NA - American Landing site name LF LAC-43 Approved 1973-01-01 00:00:00.0 [59] Astronaut-named feature, Apollo 17 site. 2010-10-25 13:58:54.9
15615 Little West Little West Moon 0.04 0.67 23.48 0.67 0.67 23.48 23.48 +E (0-180) NA - United States Landing site name LF LAC-60 Approved 2017-07-26 00:00:00.0 [427] Astronaut named crater, Apollo 11 site. 2017-07-26 14:56:33.856
3556 Mackin Mackin Moon 0.48 20.1 30.73 20.11 20.1 30.73 30.72 +E (0-180) NA - American Landing site name LF LAC-43 Approved 1973-01-01 00:00:00.0 [59] Astronaut-named feature, Apollo 17 site. (Spelling changed from Mackin-Apollo.) 2010-10-18 12:00:00.0
3885 Middle Crescent Middle Crescent Moon 0.36 -3 -23.43 -3 -3.01 -23.43 -23.44 +E (0-180) NA - American Landing site name LF LAC-76 Approved 1973-01-01 00:00:00.0 [59] Astronaut-named feature, Apollo 12 site. 2015-12-15 14:42:04.091
15617 Mount Marilyn Mount Marilyn Moon 30 1.13 40 1.71 0.71 40.49 39.6 +E (0-180) NA - United States Landing site name LF LAC-61 Approved 2017-07-26 00:00:00.0 [429] Astronaut named feature, Apollo 11 site. 2017-07-26 14:07:24.749
4144 Nansen-Apollo Nansen Apollo Moon 0.86 20.11 30.53 20.12 20.09 30.54 30.52 +E (0-180) NA - American Landing site name LF LAC-43 Approved 1973-01-01 00:00:00.0 [59] Astronaut-named feature, Apollo 17 site. 2010-10-25 13:59:35.283
4340 North Complex North Complex Moon 3.09 26.25 3.59 26.29 26.21 3.65 3.55 +E (0-180) NA - American Landing site name LF LAC-41 Approved 1973-01-01 00:00:00.0 [59] Astronaut-named feature, Apollo 15 site. 2010-10-25 13:59:58.189
4341 North Massif North Massif Moon 16.31 20.54 30.72 20.77 20.28 30.99 30.46 +E (0-180) EU - France Landing site name LF LAC-43 Approved 1973-01-01 00:00:00.0 [59] Astronaut-named feature, Apollo 17 site. 2010-10-25 14:00:17.769
4342 North Ray North Ray Moon 0.95 -8.82 15.48 -8.8 -8.83 15.5 15.47 +E (0-180) NA - American Landing site name LF LAC-78 Approved 1973-01-01 00:00:00.0 [59] Astronaut-named feature, Apollo 16 site. 2010-10-25 14:00:38.004
4434 Old Nameless Old Nameless Moon 0.83 -3.72 -17.42 -3.71 -3.73 -17.41 -17.43 +E (0-180) NA - American Landing site name LF LAC-76 Approved 1973-01-01 00:00:00.0 [59] Astronaut-named feature, Apollo 14 site. 2015-12-15 15:13:02.577
4561 Palmetto Palmetto Moon 0.76 -8.92 15.5 -8.91 -8.93 15.51 15.48 +E (0-180) NA - American Landing site name LF LAC-78 Approved 1973-01-01 00:00:00.0 [59] Astronaut-named feature, Apollo 16 site. 2010-10-18 12:00:00.0
4747 Plain Plain Moon 2.8 26.15 3.64 26.19 26.11 3.69 3.59 +E (0-180) NA - American Landing site name LF LAC-41 Approved 1973-01-01 00:00:00.0 [59] Astronaut-named feature, Apollo 15 site. 2010-10-25 14:01:40.905
4763 Plum Plum Moon 0.03 -8.98 15.45 -8.98 -8.98 15.45 15.45 +E (0-180) NA - American Landing site name LF LAC-78 Approved 1973-01-01 00:00:00.0 [59] Astronaut-named feature, Apollo 16 site. 2010-10-25 14:02:03.049
4814 Powell Powell Moon 0.4 20.16 30.76 20.17 20.15 30.77 30.76 +E (0-180) NA - American Landing site name LF LAC-43 Approved 1973-01-01 00:00:00.0 [60] Astronaut-named feature, Apollo 17 site. 2010-10-25 14:02:23.456
4962 Ravine Ravine Moon 1.06 -8.84 15.56 -8.82 -8.85 15.58 15.54 +E (0-180) NA - American Landing site name LF LAC-78 Approved 1973-01-01 00:00:00.0 [59] Astronaut-named feature, Apollo 16 site. 2010-10-25 14:02:44.705

Download all your search results in one of the follow formats (need help?):

  • XML useful for application development
  • KML for importing into Google Earth
  • CSV (comma separated values) for importing into Excel
  • TSV (tab separated values) for importing into other spread sheets

Note - to select which columns are included in your download, use the Advanced Search.